Leonard, Texas
Current Conditions -  °F | °C
As of 5:53 PM on Friday 19 Dec 2014 (Local Time) from KTKI Reporting Station
Overcast Overcast  
Wind Chill: 44°   Ceiling: 1000
Heat Index: 47°   Visibility: 9mi
Dew Point: 45°   Wind: 6mph
Humidity: 93%   Direction: 360°N
Pressure: 30.18"   Gusts: NA
Location:  33.38°N, 96.25°W
Report Text: KTKI 192353Z 36005KT 9SM OVC010 08/07 A3018 RMK AO2 CIG 008V013 SLP232 T00830072 10089 20083 53009
Loading
Personal Weather Stations






























Interactive Weather Map New forecast layout! Learn more

10-Day Weather Forecast

Advertisements
Track Severe Weather on mobile